createdAt,value
2022-10-18T00:01:01.683Z,15.83
2022-10-18T00:03:29.864Z,15.93
2022-10-18T00:05:57.962Z,15.91
2022-10-18T00:08:26.326Z,16.01
2022-10-18T00:10:54.518Z,16.05
2022-10-18T00:13:24.187Z,15.97
2022-10-18T00:15:53.482Z,15.95
2022-10-18T00:18:21.813Z,15.98
2022-10-18T00:20:58.375Z,15.94
2022-10-18T00:23:27.226Z,16.07
2022-10-18T00:26:02.962Z,16.00
2022-10-18T00:28:32.613Z,16.07
2022-10-18T00:31:11.182Z,16.02
2022-10-18T00:33:39.197Z,16.03
2022-10-18T00:36:07.754Z,16.02
2022-10-18T00:38:35.734Z,16.07
2022-10-18T00:41:04.217Z,16.02
2022-10-18T00:43:33.680Z,16.03
2022-10-18T00:46:01.550Z,15.95
2022-10-18T00:48:29.501Z,16.02
2022-10-18T00:50:57.485Z,16.09
2022-10-18T00:53:25.423Z,15.92
2022-10-18T00:55:53.271Z,15.85
2022-10-18T00:58:21.309Z,15.86
2022-10-18T01:00:50.588Z,15.85
2022-10-18T01:03:18.471Z,15.75
2022-10-18T01:05:47.901Z,15.68
2022-10-18T01:08:45.543Z,15.59
2022-10-18T01:11:24.035Z,15.63
2022-10-18T01:14:00.981Z,15.57
2022-10-18T01:16:36.395Z,15.45
2022-10-18T01:19:16.946Z,15.50
2022-10-18T01:21:47.409Z,15.38
2022-10-18T01:24:53.099Z,15.34
2022-10-18T01:27:56.656Z,15.30
2022-10-18T01:30:45.082Z,15.35
2022-10-18T01:33:20.645Z,15.25
2022-10-18T01:35:50.876Z,15.17
2022-10-18T01:38:20.031Z,15.24
2022-10-18T01:40:50.118Z,15.14
2022-10-18T01:43:18.645Z,15.20
2022-10-18T01:45:46.706Z,15.07
2022-10-18T01:48:16.672Z,15.09
2022-10-18T01:50:44.594Z,14.96
2022-10-18T01:53:31.076Z,15.03
2022-10-18T01:56:17.796Z,15.09
2022-10-18T01:58:52.274Z,15.00
2022-10-18T02:01:24.489Z,14.94
2022-10-18T02:03:57.651Z,14.95
2022-10-18T02:06:29.292Z,14.88
2022-10-18T02:09:00.766Z,14.91
2022-10-18T02:11:30.656Z,14.86
2022-10-18T02:14:07.273Z,14.82
2022-10-18T02:16:39.053Z,14.83
2022-10-18T02:19:11.895Z,14.81
2022-10-18T02:21:42.382Z,14.83
2022-10-18T02:24:11.399Z,14.78
2022-10-18T02:26:39.457Z,14.73
2022-10-18T02:29:07.498Z,14.66
2022-10-18T02:31:37.842Z,14.65
2022-10-18T02:34:10.378Z,14.65
2022-10-18T02:36:43.665Z,14.59
2022-10-18T02:39:15.387Z,14.68
2022-10-18T02:41:43.812Z,14.58
2022-10-18T02:44:12.137Z,14.49
2022-10-18T02:46:40.754Z,14.54
2022-10-18T02:49:09.990Z,14.46
2022-10-18T02:51:37.884Z,14.44
2022-10-18T02:54:06.063Z,14.41
2022-10-18T02:56:33.962Z,14.37
2022-10-18T02:59:01.796Z,14.42
2022-10-18T03:01:29.711Z,14.45
2022-10-18T03:03:58.313Z,14.35
2022-10-18T03:06:27.644Z,14.39
2022-10-18T03:08:55.524Z,14.40
2022-10-18T03:11:23.650Z,14.32
2022-10-18T03:13:51.579Z,14.27
2022-10-18T03:16:19.872Z,14.26
2022-10-18T03:18:47.963Z,14.28
2022-10-18T03:21:15.816Z,14.19
2022-10-18T03:23:45.099Z,14.15
2022-10-18T03:26:12.932Z,14.09
2022-10-18T03:28:40.873Z,14.11
2022-10-18T03:31:08.802Z,14.09
2022-10-18T03:33:37.018Z,14.00
2022-10-18T03:36:05.152Z,13.99
2022-10-18T03:38:33.029Z,13.98
2022-10-18T03:41:02.296Z,13.99
2022-10-18T03:43:30.165Z,13.95
2022-10-18T03:45:58.123Z,14.04
2022-10-18T03:48:26.013Z,13.97
2022-10-18T03:50:53.896Z,13.87
2022-10-18T03:53:21.798Z,13.87
2022-10-18T03:55:52.440Z,13.88
2022-10-18T04:02:21.584Z,13.76
2022-10-18T04:04:49.507Z,13.72
2022-10-18T04:07:17.392Z,13.73
2022-10-18T04:09:45.290Z,13.64
2022-10-18T04:12:13.254Z,13.64
2022-10-18T04:14:41.098Z,13.69
2022-10-18T04:17:09.435Z,13.65
2022-10-18T04:19:38.712Z,13.59
2022-10-18T04:22:06.524Z,13.65
2022-10-18T04:24:34.432Z,13.72
2022-10-18T04:27:02.334Z,13.67
2022-10-18T04:29:30.178Z,13.70
2022-10-18T04:31:58.132Z,13.66
2022-10-18T04:34:26.047Z,13.62
2022-10-18T04:36:55.376Z,13.64
2022-10-18T04:39:23.192Z,13.61
2022-10-18T04:41:51.032Z,13.59
2022-10-18T04:44:18.886Z,13.56
2022-10-18T04:46:46.731Z,13.54
2022-10-18T04:49:14.589Z,13.48
2022-10-18T04:51:42.403Z,13.44
2022-10-18T04:54:11.597Z,13.46
2022-10-18T04:56:39.623Z,13.50
2022-10-18T04:59:07.521Z,13.45
2022-10-18T05:01:35.643Z,13.44
2022-10-18T05:04:03.534Z,13.41
2022-10-18T05:06:31.380Z,13.37
2022-10-18T05:08:59.277Z,13.40
2022-10-18T05:11:28.550Z,13.42
2022-10-18T05:13:56.467Z,13.30
2022-10-18T05:16:24.282Z,13.30
2022-10-18T05:18:52.232Z,13.31
2022-10-18T05:21:20.094Z,13.27
2022-10-18T05:23:47.922Z,13.25
2022-10-18T05:26:15.866Z,13.37
2022-10-18T05:28:45.324Z,13.39
2022-10-18T05:31:13.433Z,13.38
2022-10-18T05:33:41.418Z,13.36
2022-10-18T05:36:10.311Z,13.33
2022-10-18T05:38:42.086Z,13.34
2022-10-18T05:41:10.625Z,13.27
2022-10-18T05:43:38.578Z,13.24
2022-10-18T05:46:13.608Z,13.30
2022-10-18T05:48:43.889Z,13.24
2022-10-18T05:51:11.837Z,13.23
2022-10-18T05:53:39.741Z,13.15
2022-10-18T05:56:08.653Z,13.18
2022-10-18T05:58:36.493Z,13.25
2022-10-18T06:01:07.822Z,13.23
2022-10-18T06:03:36.081Z,13.24
2022-10-18T06:06:05.896Z,13.19
2022-10-18T06:08:34.337Z,13.18
2022-10-18T06:11:07.443Z,13.16
2022-10-18T06:13:35.325Z,13.21
2022-10-18T06:16:03.257Z,13.16
2022-10-18T06:18:32.594Z,13.16
2022-10-18T06:21:00.675Z,13.15
2022-10-18T06:23:29.020Z,13.18
2022-10-18T06:25:59.978Z,13.24
2022-10-18T06:28:28.500Z,13.23
2022-10-18T06:30:56.807Z,13.31
2022-10-18T06:33:25.442Z,13.33
2022-10-18T06:35:59.639Z,13.39
2022-10-18T06:38:28.143Z,13.37
2022-10-18T06:40:56.228Z,13.43
2022-10-18T06:43:24.704Z,13.40
2022-10-18T06:45:52.947Z,13.41
2022-10-18T06:48:21.149Z,13.41
2022-10-18T06:50:52.988Z,13.48
2022-10-18T06:53:22.381Z,13.42
2022-10-18T06:55:50.964Z,13.44
2022-10-18T06:58:19.064Z,13.53
2022-10-18T07:00:47.573Z,13.53
2022-10-18T07:03:15.419Z,13.47
2022-10-18T07:05:43.283Z,13.51
2022-10-18T07:08:11.200Z,13.53
2022-10-18T07:10:40.431Z,13.55
2022-10-18T07:13:30.753Z,13.57
2022-10-18T07:16:04.396Z,13.64
2022-10-18T07:18:33.693Z,13.65
2022-10-18T07:21:03.079Z,13.78
2022-10-18T07:23:32.624Z,13.73
2022-10-18T07:26:02.792Z,13.77
2022-10-18T07:28:30.940Z,13.73
2022-10-18T07:31:02.411Z,13.91
2022-10-18T07:33:33.831Z,13.81
2022-10-18T07:36:03.286Z,13.81
2022-10-18T07:38:31.214Z,13.85
2022-10-18T07:40:59.404Z,13.84
2022-10-18T07:43:29.113Z,13.95
2022-10-18T07:45:58.738Z,14.09
2022-10-18T07:48:26.838Z,14.03
2022-10-18T07:50:54.933Z,14.15
2022-10-18T07:53:22.711Z,14.32
2022-10-18T07:55:50.603Z,14.33
2022-10-18T07:58:18.441Z,14.24
2022-10-18T08:00:47.648Z,14.34
2022-10-18T08:03:15.577Z,14.34
2022-10-18T08:05:43.596Z,14.35
2022-10-18T08:08:11.613Z,14.26
2022-10-18T08:10:39.714Z,14.26
2022-10-18T08:13:08.038Z,14.38
2022-10-18T08:15:36.075Z,14.45
2022-10-18T08:18:05.705Z,14.50
2022-10-18T08:20:33.755Z,14.41
2022-10-18T08:23:01.589Z,14.50
2022-10-18T08:25:29.579Z,14.51
2022-10-18T08:27:57.542Z,14.35
2022-10-18T08:30:25.474Z,14.35
2022-10-18T08:32:53.414Z,14.47
2022-10-18T08:35:22.783Z,14.42
2022-10-18T08:37:51.209Z,14.38
2022-10-18T08:40:20.293Z,14.36
2022-10-18T08:43:07.145Z,14.44
2022-10-18T08:45:42.322Z,14.52
2022-10-18T08:48:19.221Z,14.66
2022-10-18T08:50:49.293Z,14.84
2022-10-18T08:53:21.004Z,14.91
2022-10-18T08:55:52.621Z,14.97
2022-10-18T08:58:22.195Z,14.87
2022-10-18T09:00:56.038Z,14.91
2022-10-18T09:03:34.773Z,15.15
2022-10-18T09:06:12.834Z,15.08
2022-10-18T09:09:00.084Z,14.93
2022-10-18T09:11:41.041Z,14.84
2022-10-18T09:14:33.903Z,14.81
2022-10-18T09:17:12.358Z,15.08
2022-10-18T09:19:55.032Z,14.78
2022-10-18T09:22:30.898Z,15.11
2022-10-18T09:25:04.411Z,15.32
2022-10-18T09:27:38.374Z,14.95
2022-10-18T09:30:11.280Z,15.11
2022-10-18T09:32:46.901Z,15.07
2022-10-18T09:35:17.977Z,15.01
2022-10-18T09:37:47.258Z,15.08
2022-10-18T09:40:19.119Z,15.32
2022-10-18T09:42:54.811Z,15.20
2022-10-18T09:45:27.615Z,15.28
2022-10-18T09:48:03.316Z,15.15
2022-10-18T09:50:33.870Z,15.27
2022-10-18T09:53:12.665Z,15.24
2022-10-18T09:55:51.707Z,15.15
2022-10-18T09:58:21.789Z,15.26
2022-10-18T10:00:50.905Z,15.43
2022-10-18T10:03:18.782Z,15.55
2022-10-18T10:05:46.710Z,15.67
2022-10-18T10:08:16.020Z,15.83
2022-10-18T10:10:47.964Z,15.85
2022-10-18T10:13:17.721Z,16.04
2022-10-18T10:15:47.797Z,16.06
2022-10-18T10:18:21.144Z,15.97
2022-10-18T10:20:51.771Z,15.93
2022-10-18T10:23:23.099Z,15.91
2022-10-18T10:25:53.944Z,16.03
2022-10-18T10:28:23.885Z,15.93
2022-10-18T10:30:52.035Z,15.67
2022-10-18T10:33:32.857Z,15.51
2022-10-18T10:36:01.693Z,15.62
2022-10-18T10:38:31.924Z,15.54
2022-10-18T10:41:00.589Z,15.37
2022-10-18T10:43:38.266Z,15.12
2022-10-18T10:46:09.071Z,15.18
2022-10-18T10:48:43.108Z,15.08
2022-10-18T10:51:11.665Z,14.96
2022-10-18T10:53:50.112Z,14.93
2022-10-18T10:56:23.019Z,14.93
2022-10-18T10:58:51.176Z,14.90
2022-10-18T11:01:28.409Z,14.82
2022-10-18T11:03:58.294Z,14.91
2022-10-18T11:06:47.648Z,15.32
2022-10-18T11:09:43.389Z,15.41
2022-10-18T11:12:19.293Z,15.48
2022-10-18T11:14:52.347Z,15.68
2022-10-18T11:17:24.892Z,16.36
2022-10-18T11:20:21.294Z,17.08
2022-10-18T11:23:00.509Z,17.30
2022-10-18T11:25:47.064Z,17.89
2022-10-18T11:28:17.806Z,17.90
2022-10-18T11:30:53.397Z,17.38
2022-10-18T11:33:38.279Z,16.73
2022-10-18T11:36:17.127Z,17.00
2022-10-18T11:38:49.142Z,16.83
2022-10-18T11:41:31.379Z,16.45
2022-10-18T11:44:03.084Z,16.00
2022-10-18T11:46:42.225Z,16.30
2022-10-18T11:49:21.046Z,16.19
2022-10-18T11:52:07.905Z,16.24
2022-10-18T11:54:53.285Z,17.29
2022-10-18T11:57:33.655Z,17.39
2022-10-18T12:00:10.076Z,18.07
2022-10-18T12:03:03.536Z,18.13
2022-10-18T12:05:35.831Z,17.84
2022-10-18T12:08:07.152Z,17.86
2022-10-18T12:10:53.036Z,18.36
2022-10-18T12:24:23.200Z,19.03
2022-10-18T12:26:53.442Z,19.27
2022-10-18T12:29:28.596Z,19.65
2022-10-18T12:31:58.836Z,20.20
2022-10-18T12:34:35.638Z,19.22
2022-10-18T12:37:22.701Z,19.83
2022-10-18T12:42:43.569Z,19.22
2022-10-18T12:45:25.860Z,18.85
2022-10-18T12:47:54.135Z,19.51
2022-10-18T12:50:33.931Z,18.93
2022-10-18T12:53:07.474Z,18.56
2022-10-18T12:55:37.874Z,18.48
2022-10-18T12:58:22.759Z,17.90
2022-10-18T13:01:01.234Z,17.10
2022-10-18T13:03:54.626Z,17.24
2022-10-18T13:06:23.697Z,16.99
2022-10-18T13:09:19.955Z,17.70
2022-10-18T13:11:47.999Z,18.37
2022-10-18T13:14:38.759Z,19.01
2022-10-18T13:17:24.834Z,19.49
2022-10-18T13:20:23.900Z,19.51
2022-10-18T13:23:02.207Z,19.56
2022-10-18T13:25:34.920Z,19.17
2022-10-18T13:28:15.241Z,19.35
2022-10-18T13:30:49.084Z,19.17
2022-10-18T13:33:28.003Z,19.09
2022-10-18T13:35:57.116Z,18.44
2022-10-18T13:38:42.699Z,18.60
2022-10-18T13:41:12.389Z,18.82
2022-10-18T13:44:01.498Z,19.16
2022-10-18T13:47:14.195Z,19.78
2022-10-18T13:53:26.588Z,18.90
2022-10-18T13:56:43.012Z,18.37
2022-10-18T13:59:31.157Z,18.72
2022-10-18T14:02:15.073Z,19.61
2022-10-18T14:05:23.141Z,19.63
2022-10-18T14:07:51.462Z,19.26
2022-10-18T14:10:43.449Z,19.91
2022-10-18T14:13:19.073Z,19.08
2022-10-18T14:15:49.855Z,18.43
2022-10-18T14:18:27.955Z,17.99
2022-10-18T14:21:14.557Z,17.19
2022-10-18T14:23:45.527Z,17.19
2022-10-18T14:26:16.068Z,16.85
2022-10-18T14:29:00.593Z,16.72
2022-10-18T14:31:28.932Z,16.51
2022-10-18T14:33:58.980Z,16.40
2022-10-18T14:36:31.438Z,16.19
2022-10-18T14:39:00.553Z,16.27
2022-10-18T14:41:29.281Z,16.18
2022-10-18T14:44:18.514Z,16.15
2022-10-18T14:46:47.745Z,16.05
2022-10-18T14:49:16.623Z,16.01
2022-10-18T14:51:48.358Z,16.04
2022-10-18T14:54:17.851Z,15.84
2022-10-18T14:56:47.029Z,15.80
2022-10-18T14:59:19.321Z,15.93
2022-10-18T15:01:56.624Z,15.97
2022-10-18T15:04:32.791Z,16.00
2022-10-18T15:07:04.900Z,15.97
2022-10-18T15:09:34.022Z,15.94
2022-10-18T15:12:02.207Z,15.95
2022-10-18T15:14:30.730Z,16.09
2022-10-18T15:17:01.464Z,16.53
2022-10-18T15:19:35.052Z,17.06
2022-10-18T15:25:17.285Z,16.68
2022-10-18T15:27:47.671Z,16.38
2022-10-18T15:30:20.115Z,16.24
2022-10-18T15:32:50.370Z,16.13
2022-10-18T15:35:25.691Z,15.89
2022-10-18T15:37:56.743Z,15.77
2022-10-18T15:40:37.983Z,15.62
2022-10-18T15:43:08.105Z,15.58
2022-10-18T15:45:38.415Z,15.53
2022-10-18T15:48:21.194Z,15.48
2022-10-18T15:50:50.908Z,15.56
2022-10-18T15:53:33.410Z,15.37
2022-10-18T15:56:03.221Z,15.23
2022-10-18T15:58:37.753Z,15.27
2022-10-18T16:01:06.591Z,15.19
2022-10-18T16:03:35.062Z,15.08
2022-10-18T16:06:06.047Z,15.06
2022-10-18T16:08:40.997Z,14.96
2022-10-18T16:11:09.692Z,14.92
2022-10-18T16:13:37.590Z,14.95
2022-10-18T16:16:05.886Z,14.86
2022-10-18T16:18:34.410Z,14.92
2022-10-18T16:21:03.032Z,14.71
2022-10-18T16:23:31.023Z,14.65
2022-10-18T16:26:00.322Z,14.59
2022-10-18T16:28:31.732Z,14.64
2022-10-18T16:31:01.589Z,14.64
2022-10-18T16:33:29.574Z,14.58
2022-10-18T16:35:57.807Z,14.65
2022-10-18T16:38:32.507Z,14.68
2022-10-18T16:41:05.565Z,14.70
2022-10-18T16:43:34.540Z,14.53
2022-10-18T16:46:02.907Z,14.75
2022-10-18T16:48:30.818Z,14.58
2022-10-18T16:50:59.321Z,14.59
2022-10-18T16:53:28.038Z,14.68
2022-10-18T16:55:58.804Z,14.61
2022-10-18T16:58:29.222Z,14.67
2022-10-18T17:00:57.420Z,14.73
2022-10-18T17:03:25.878Z,14.69
2022-10-18T17:05:54.303Z,14.73
2022-10-18T17:08:24.174Z,14.77
2022-10-18T17:10:53.851Z,14.64
2022-10-18T17:13:23.107Z,14.73
2022-10-18T17:15:53.372Z,14.75
2022-10-18T17:18:23.397Z,14.76
2022-10-18T17:20:51.526Z,14.65
2022-10-18T17:23:19.688Z,14.63
2022-10-18T17:25:59.181Z,14.63
2022-10-18T17:28:36.466Z,14.69
2022-10-18T17:31:08.660Z,14.75
2022-10-18T17:33:36.922Z,14.73
2022-10-18T17:36:05.460Z,14.67
2022-10-18T17:38:33.489Z,14.59
2022-10-18T17:41:01.387Z,14.65
2022-10-18T17:43:29.443Z,14.63
2022-10-18T17:45:57.551Z,14.54
2022-10-18T17:48:28.252Z,14.65
2022-10-18T17:50:56.191Z,14.64
2022-10-18T17:53:28.431Z,14.64
2022-10-18T17:56:02.348Z,14.63
2022-10-18T17:58:30.952Z,14.66
2022-10-18T18:00:59.187Z,14.61
2022-10-18T18:03:28.528Z,14.51
2022-10-18T18:05:57.316Z,14.58
2022-10-18T18:08:25.513Z,14.54
2022-10-18T18:10:55.326Z,14.47
2022-10-18T18:13:26.263Z,14.43
2022-10-18T18:15:55.722Z,14.46
2022-10-18T18:18:23.880Z,14.37
2022-10-18T18:20:55.127Z,14.41
2022-10-18T18:23:23.837Z,14.40
2022-10-18T18:25:56.634Z,14.43
2022-10-18T18:28:27.260Z,14.36
2022-10-18T18:30:55.531Z,14.34
2022-10-18T18:33:24.770Z,14.46
2022-10-18T18:35:58.261Z,14.42
2022-10-18T18:38:27.423Z,14.39
2022-10-18T18:41:04.969Z,14.43
2022-10-18T18:43:33.292Z,14.40
2022-10-18T18:46:02.064Z,14.32
2022-10-18T18:48:32.368Z,14.28
2022-10-18T18:51:01.814Z,14.44
2022-10-18T18:53:30.259Z,14.22
2022-10-18T18:56:05.717Z,14.40
2022-10-18T18:58:35.920Z,14.28
2022-10-18T19:01:08.142Z,14.30
2022-10-18T19:03:38.381Z,14.38
2022-10-18T19:06:09.578Z,14.09
2022-10-18T19:08:39.111Z,14.04
2022-10-18T19:11:09.411Z,13.74
2022-10-18T19:13:37.939Z,13.64
2022-10-18T19:16:19.666Z,13.63
2022-10-18T19:18:52.675Z,13.58
2022-10-18T19:21:22.121Z,13.63
2022-10-18T19:23:50.464Z,13.60
2022-10-18T19:26:31.892Z,13.54
2022-10-18T19:29:06.211Z,13.48
2022-10-18T19:31:34.993Z,13.47
2022-10-18T19:34:04.088Z,13.51
2022-10-18T19:36:33.839Z,13.54
2022-10-18T19:39:02.004Z,13.50
2022-10-18T19:41:29.993Z,13.57
2022-10-18T19:43:58.522Z,13.59
2022-10-18T19:46:26.724Z,13.44
2022-10-18T19:48:54.967Z,13.48
2022-10-18T19:51:27.067Z,13.47
2022-10-18T19:53:57.797Z,13.54
2022-10-18T19:56:27.624Z,13.50
2022-10-18T19:58:56.006Z,13.51
2022-10-18T20:01:24.136Z,13.44
2022-10-18T20:03:52.161Z,13.45
2022-10-18T20:06:20.147Z,13.44
2022-10-18T20:08:48.699Z,13.43
2022-10-18T20:11:20.027Z,13.41
2022-10-18T20:13:48.243Z,13.38
2022-10-18T20:16:17.708Z,13.41
2022-10-18T20:18:45.669Z,13.46
2022-10-18T20:21:15.357Z,13.53
2022-10-18T20:23:44.420Z,13.49
2022-10-18T20:26:18.127Z,13.55
2022-10-18T20:28:55.985Z,13.60
2022-10-18T20:31:25.498Z,13.62
2022-10-18T20:33:58.097Z,13.57
2022-10-18T20:36:27.206Z,13.54
2022-10-18T20:38:55.834Z,13.58
2022-10-18T20:41:25.789Z,13.52
2022-10-18T20:43:56.505Z,13.53
2022-10-18T20:46:24.910Z,13.48
2022-10-18T20:48:53.682Z,13.53
2022-10-18T20:51:22.037Z,13.46
2022-10-18T20:53:50.191Z,13.38
2022-10-18T20:56:20.659Z,13.44
2022-10-18T20:58:50.042Z,13.43
2022-10-18T21:01:20.660Z,13.41
2022-10-18T21:03:50.086Z,13.47
2022-10-18T21:06:19.618Z,13.45
2022-10-18T21:08:47.830Z,13.32
2022-10-18T21:11:15.861Z,13.29
2022-10-18T21:13:43.869Z,13.35
2022-10-18T21:16:11.811Z,13.30
2022-10-18T21:18:41.119Z,13.42
2022-10-18T21:21:10.759Z,13.33
2022-10-18T21:23:39.185Z,13.33
2022-10-18T21:26:08.113Z,13.26
2022-10-18T21:28:36.126Z,13.18
2022-10-18T21:31:12.631Z,13.25
2022-10-18T21:33:42.666Z,13.24
2022-10-18T21:36:11.269Z,13.28
2022-10-18T21:38:39.391Z,13.18
2022-10-18T21:41:11.504Z,13.17
2022-10-18T21:43:41.131Z,13.12
2022-10-18T21:46:10.048Z,13.12
2022-10-18T21:48:38.602Z,13.12
2022-10-18T21:51:09.023Z,13.09
2022-10-18T21:53:37.347Z,13.04
2022-10-18T21:56:07.237Z,13.07
2022-10-18T21:58:35.674Z,13.01
2022-10-18T22:01:07.906Z,12.95
2022-10-18T22:03:36.092Z,12.94
2022-10-18T22:06:09.406Z,12.89
2022-10-18T22:08:37.631Z,12.88
2022-10-18T22:11:05.713Z,12.80
2022-10-18T22:13:33.794Z,12.75
2022-10-18T22:16:02.410Z,12.72
2022-10-18T22:18:31.000Z,12.80
2022-10-18T22:21:00.212Z,12.76
2022-10-18T22:23:33.694Z,12.63
2022-10-18T22:26:05.567Z,12.52
2022-10-18T22:28:33.519Z,12.35
2022-10-18T22:31:01.621Z,12.32
2022-10-18T22:33:29.663Z,12.19
2022-10-18T22:35:57.607Z,11.98
2022-10-18T22:38:25.694Z,11.97
2022-10-18T22:40:54.999Z,11.93
2022-10-18T22:43:22.941Z,11.95
2022-10-18T22:45:50.784Z,12.00
2022-10-18T22:48:18.631Z,11.83
2022-10-18T22:50:46.505Z,11.83
2022-10-18T22:53:14.384Z,11.79
2022-10-18T22:55:42.723Z,11.79
2022-10-18T22:58:12.025Z,11.99
2022-10-18T23:00:40.038Z,11.97
2022-10-18T23:03:08.020Z,11.98
2022-10-18T23:05:38.813Z,11.98
2022-10-18T23:08:06.867Z,12.03
2022-10-18T23:10:34.700Z,11.98
2022-10-18T23:13:02.544Z,12.03
2022-10-18T23:15:33.616Z,12.15
2022-10-18T23:18:02.269Z,12.17
2022-10-18T23:20:30.140Z,12.15
2022-10-18T23:22:58.183Z,12.12
2022-10-18T23:25:27.076Z,12.02
2022-10-18T23:27:55.204Z,12.06
2022-10-18T23:30:23.094Z,12.09
2022-10-18T23:32:52.384Z,12.10
2022-10-18T23:35:20.310Z,12.15
2022-10-18T23:37:48.178Z,12.21
2022-10-18T23:40:16.091Z,12.15
2022-10-18T23:42:43.961Z,12.23
2022-10-18T23:45:12.205Z,12.22
2022-10-18T23:47:40.058Z,12.27
2022-10-18T23:50:10.210Z,12.29
2022-10-18T23:52:38.062Z,12.23
2022-10-18T23:55:08.860Z,12.25
2022-10-18T23:57:36.783Z,12.22
